sensor_id;sensor_type;location;lat;lon;timestamp;pressure;altitude;pressure_sealevel;temperature;humidity
78488;BME280;67885;49.758;9.582;2023-05-10T00:00:37;98437.97;;;20.27;56.79
78488;BME280;67885;49.758;9.582;2023-05-10T00:03:04;98435.28;;;20.27;56.48
78488;BME280;67885;49.758;9.582;2023-05-10T00:05:31;98427.81;;;20.16;56.56
78488;BME280;67885;49.758;9.582;2023-05-10T00:07:57;98438.56;;;20.16;57.58
78488;BME280;67885;49.758;9.582;2023-05-10T00:10:25;98429.44;;;20.10;57.30
78488;BME280;67885;49.758;9.582;2023-05-10T00:12:52;98443.31;;;20.14;57.58
78488;BME280;67885;49.758;9.582;2023-05-10T00:15:18;98424.06;;;20.10;57.17
78488;BME280;67885;49.758;9.582;2023-05-10T00:17:45;98427.19;;;20.14;57.05
78488;BME280;67885;49.758;9.582;2023-05-10T00:20:12;98421.19;;;20.05;57.03
78488;BME280;67885;49.758;9.582;2023-05-10T00:22:38;98428.41;;;20.04;57.70
78488;BME280;67885;49.758;9.582;2023-05-10T00:25:06;98356.09;;;19.54;57.10
78488;BME280;67885;49.758;9.582;2023-05-10T00:27:34;98433.38;;;20.01;57.48
78488;BME280;67885;49.758;9.582;2023-05-10T00:30:01;98427.13;;;19.94;56.96
78488;BME280;67885;49.758;9.582;2023-05-10T00:32:27;98399.13;;;19.75;57.61
78488;BME280;67885;49.758;9.582;2023-05-10T00:34:54;98388.81;;;19.71;58.08
78488;BME280;67885;49.758;9.582;2023-05-10T00:37:21;98413.28;;;19.90;57.74
78488;BME280;67885;49.758;9.582;2023-05-10T00:39:47;98387.38;;;19.76;57.28
78488;BME280;67885;49.758;9.582;2023-05-10T00:42:14;98429.03;;;20.00;57.42
78488;BME280;67885;49.758;9.582;2023-05-10T00:44:42;98431.91;;;19.98;57.37
78488;BME280;67885;49.758;9.582;2023-05-10T00:47:09;98420.94;;;19.93;57.93
78488;BME280;67885;49.758;9.582;2023-05-10T00:49:37;98425.06;;;19.96;57.70
78488;BME280;67885;49.758;9.582;2023-05-10T00:52:04;98425.72;;;20.04;57.85
78488;BME280;67885;49.758;9.582;2023-05-10T00:54:31;98422.19;;;19.97;57.68
78488;BME280;67885;49.758;9.582;2023-05-10T00:56:58;98433.97;;;20.03;57.74
78488;BME280;67885;49.758;9.582;2023-05-10T00:59:25;98437.91;;;20.00;57.57
78488;BME280;67885;49.758;9.582;2023-05-10T01:01:53;98437.09;;;20.00;58.72
78488;BME280;67885;49.758;9.582;2023-05-10T01:04:20;98349.66;;;19.42;57.78
78488;BME280;67885;49.758;9.582;2023-05-10T01:06:51;98437.88;;;19.94;57.71
78488;BME280;67885;49.758;9.582;2023-05-10T01:09:18;98403.44;;;19.62;58.06
78488;BME280;67885;49.758;9.582;2023-05-10T01:11:46;98440.97;;;19.84;57.17
78488;BME280;67885;49.758;9.582;2023-05-10T01:14:13;98432.59;;;19.72;56.75
78488;BME280;67885;49.758;9.582;2023-05-10T01:16:43;98443.56;;;19.70;57.12
78488;BME280;67885;49.758;9.582;2023-05-10T01:19:19;98455.50;;;19.61;56.61
78488;BME280;67885;49.758;9.582;2023-05-10T01:21:53;98453.84;;;19.53;56.88
78488;BME280;67885;49.758;9.582;2023-05-10T01:27:51;98457.25;;;19.41;56.77
78488;BME280;67885;49.758;9.582;2023-05-10T01:30:48;98456.41;;;19.33;57.26
78488;BME280;67885;49.758;9.582;2023-05-10T01:33:26;98464.63;;;19.25;57.52
78488;BME280;67885;49.758;9.582;2023-05-10T01:36:05;98410.09;;;18.90;57.18
78488;BME280;67885;49.758;9.582;2023-05-10T01:38:41;98457.09;;;19.14;57.41
78488;BME280;67885;49.758;9.582;2023-05-10T01:41:17;98455.41;;;19.06;57.95
78488;BME280;67885;49.758;9.582;2023-05-10T01:43:54;98458.47;;;19.03;57.29
78488;BME280;67885;49.758;9.582;2023-05-10T01:46:28;98454.09;;;18.95;57.43
78488;BME280;67885;49.758;9.582;2023-05-10T01:48:58;98450.03;;;18.78;58.38
78488;BME280;67885;49.758;9.582;2023-05-10T01:51:31;98464.31;;;18.85;57.82
78488;BME280;67885;49.758;9.582;2023-05-10T01:54:02;98464.50;;;18.83;58.69
78488;BME280;67885;49.758;9.582;2023-05-10T01:56:33;98467.00;;;18.85;58.45
78488;BME280;67885;49.758;9.582;2023-05-10T01:59:07;98460.81;;;18.84;58.34
78488;BME280;67885;49.758;9.582;2023-05-10T02:01:36;98477.19;;;18.90;57.45
78488;BME280;67885;49.758;9.582;2023-05-10T02:04:07;98476.34;;;18.89;57.50
78488;BME280;67885;49.758;9.582;2023-05-10T02:06:36;98480.03;;;18.88;57.75
78488;BME280;67885;49.758;9.582;2023-05-10T02:09:06;98477.91;;;18.83;57.69
78488;BME280;67885;49.758;9.582;2023-05-10T02:11:37;98471.09;;;18.81;56.55
78488;BME280;67885;49.758;9.582;2023-05-10T02:14:06;98488.00;;;18.81;56.74
78488;BME280;67885;49.758;9.582;2023-05-10T02:16:35;98468.75;;;18.71;57.68
78488;BME280;67885;49.758;9.582;2023-05-10T02:19:04;98450.66;;;18.58;56.78
78488;BME280;67885;49.758;9.582;2023-05-10T02:21:34;98482.78;;;18.73;56.93
78488;BME280;67885;49.758;9.582;2023-05-10T02:24:04;98481.44;;;18.62;57.26
78488;BME280;67885;49.758;9.582;2023-05-10T02:26:34;98493.03;;;18.63;56.77
78488;BME280;67885;49.758;9.582;2023-05-10T02:29:03;98488.81;;;18.53;57.18
78488;BME280;67885;49.758;9.582;2023-05-10T02:31:32;98502.66;;;18.57;57.33
78488;BME280;67885;49.758;9.582;2023-05-10T02:34:01;98500.34;;;18.54;56.66
78488;BME280;67885;49.758;9.582;2023-05-10T02:36:30;98505.66;;;18.47;57.60
78488;BME280;67885;49.758;9.582;2023-05-10T02:38:59;98471.03;;;18.09;57.07
78488;BME280;67885;49.758;9.582;2023-05-10T02:41:31;98503.94;;;18.40;57.61
78488;BME280;67885;49.758;9.582;2023-05-10T02:44:01;98504.94;;;18.39;57.00
78488;BME280;67885;49.758;9.582;2023-05-10T02:46:29;98505.06;;;18.30;57.69
78488;BME280;67885;49.758;9.582;2023-05-10T02:48:55;98515.41;;;18.33;57.14
78488;BME280;67885;49.758;9.582;2023-05-10T02:51:25;98509.78;;;18.28;57.38
78488;BME280;67885;49.758;9.582;2023-05-10T02:53:57;98511.84;;;18.26;57.59
78488;BME280;67885;49.758;9.582;2023-05-10T02:56:32;98509.34;;;18.25;57.32
78488;BME280;67885;49.758;9.582;2023-05-10T02:59:00;98513.88;;;18.24;57.69
78488;BME280;67885;49.758;9.582;2023-05-10T03:01:26;98504.34;;;18.22;57.58
78488;BME280;67885;49.758;9.582;2023-05-10T03:03:53;98507.69;;;18.24;57.83
78488;BME280;67885;49.758;9.582;2023-05-10T03:06:19;98511.63;;;18.28;58.09
78488;BME280;67885;49.758;9.582;2023-05-10T03:08:46;98513.94;;;18.31;57.26
78488;BME280;67885;49.758;9.582;2023-05-10T03:11:28;98509.34;;;18.25;57.27
78488;BME280;67885;49.758;9.582;2023-05-10T03:14:10;98501.88;;;18.20;57.32
78488;BME280;67885;49.758;9.582;2023-05-10T03:16:45;98512.03;;;18.25;57.70
78488;BME280;67885;49.758;9.582;2023-05-10T03:19:17;98431.38;;;17.68;57.50
78488;BME280;67885;49.758;9.582;2023-05-10T03:21:50;98530.13;;;18.23;57.76
78488;BME280;67885;49.758;9.582;2023-05-10T03:24:21;98514.38;;;18.13;57.34
78488;BME280;67885;49.758;9.582;2023-05-10T03:26:53;98534.03;;;18.20;57.58
78488;BME280;67885;49.758;9.582;2023-05-10T03:29:23;98531.72;;;18.17;57.43
78488;BME280;67885;49.758;9.582;2023-05-10T03:31:52;98533.94;;;18.13;58.33
78488;BME280;67885;49.758;9.582;2023-05-10T03:34:23;98539.09;;;18.15;58.14
78488;BME280;67885;49.758;9.582;2023-05-10T03:36:49;98519.38;;;18.01;58.20
78488;BME280;67885;49.758;9.582;2023-05-10T03:39:16;98531.72;;;18.17;57.00
78488;BME280;67885;49.758;9.582;2023-05-10T03:41:43;98539.75;;;18.17;57.13
78488;BME280;67885;49.758;9.582;2023-05-10T03:44:10;98542.84;;;18.14;58.07
78488;BME280;67885;49.758;9.582;2023-05-10T03:46:37;98543.19;;;18.11;56.93
78488;BME280;67885;49.758;9.582;2023-05-10T03:49:04;98544.41;;;18.08;57.19
78488;BME280;67885;49.758;9.582;2023-05-10T03:51:30;98431.81;;;17.35;57.33
78488;BME280;67885;49.758;9.582;2023-05-10T03:53:57;98553.47;;;18.07;57.92
78488;BME280;67885;49.758;9.582;2023-05-10T03:56:24;98546.25;;;18.08;57.88
78488;BME280;67885;49.758;9.582;2023-05-10T03:58:50;98548.13;;;18.07;57.46
78488;BME280;67885;49.758;9.582;2023-05-10T04:01:18;98539.91;;;17.94;57.81
78488;BME280;67885;49.758;9.582;2023-05-10T04:03:45;98520.75;;;17.82;57.60
78488;BME280;67885;49.758;9.582;2023-05-10T04:06:11;98552.53;;;18.00;57.76
78488;BME280;67885;49.758;9.582;2023-05-10T04:08:38;98548.84;;;18.01;58.25
78488;BME280;67885;49.758;9.582;2023-05-10T04:11:05;98549.03;;;17.99;57.93
78488;BME280;67885;49.758;9.582;2023-05-10T04:13:32;98557.06;;;17.99;57.63
78488;BME280;67885;49.758;9.582;2023-05-10T04:15:59;98552.28;;;17.95;58.58
78488;BME280;67885;49.758;9.582;2023-05-10T04:18:27;98561.81;;;17.97;58.38
78488;BME280;67885;49.758;9.582;2023-05-10T04:20:54;98561.63;;;17.99;58.44
78488;BME280;67885;49.758;9.582;2023-05-10T04:23:20;98572.66;;;18.11;58.74
78488;BME280;67885;49.758;9.582;2023-05-10T04:25:47;98565.75;;;18.16;57.89
78488;BME280;67885;49.758;9.582;2023-05-10T04:28:14;98572.19;;;18.22;57.90
78488;BME280;67885;49.758;9.582;2023-05-10T04:30:40;98577.84;;;18.27;57.46
78488;BME280;67885;49.758;9.582;2023-05-10T04:33:07;98574.78;;;18.30;58.53
78488;BME280;67885;49.758;9.582;2023-05-10T04:35:35;98579.34;;;18.36;57.37
78488;BME280;67885;49.758;9.582;2023-05-10T04:38:02;98583.72;;;18.37;56.95
78488;BME280;67885;49.758;9.582;2023-05-10T04:40:28;98583.91;;;18.36;57.30
78488;BME280;67885;49.758;9.582;2023-05-10T04:42:55;98588.06;;;18.39;57.33
78488;BME280;67885;49.758;9.582;2023-05-10T04:45:22;98586.19;;;18.39;56.87
78488;BME280;67885;49.758;9.582;2023-05-10T04:47:48;98592.03;;;18.43;57.09
78488;BME280;67885;49.758;9.582;2023-05-10T04:50:15;98591.63;;;18.46;57.67
78488;BME280;67885;49.758;9.582;2023-05-10T04:52:44;98586.09;;;18.47;57.95
78488;BME280;67885;49.758;9.582;2023-05-10T04:55:10;98595.41;;;18.51;57.62
78488;BME280;67885;49.758;9.582;2023-05-10T04:57:37;98596.06;;;18.53;56.69
78488;BME280;67885;49.758;9.582;2023-05-10T05:00:05;98586.75;;;18.49;56.68
78488;BME280;67885;49.758;9.582;2023-05-10T05:02:31;98559.78;;;18.36;56.45
78488;BME280;67885;49.758;9.582;2023-05-10T05:04:58;98587.13;;;18.46;56.74
78488;BME280;67885;49.758;9.582;2023-05-10T05:07:25;98584.31;;;18.54;57.74
78488;BME280;67885;49.758;9.582;2023-05-10T05:09:52;98604.44;;;18.65;56.46
78488;BME280;67885;49.758;9.582;2023-05-10T05:12:19;98607.75;;;18.67;56.33
78488;BME280;67885;49.758;9.582;2023-05-10T05:14:46;98601.78;;;18.65;57.24
78488;BME280;67885;49.758;9.582;2023-05-10T05:17:12;98604.34;;;18.74;56.94
78488;BME280;67885;49.758;9.582;2023-05-10T05:19:39;98606.44;;;18.78;56.64
78488;BME280;67885;49.758;9.582;2023-05-10T05:22:06;98608.09;;;18.79;56.90
78488;BME280;67885;49.758;9.582;2023-05-10T05:24:35;98616.16;;;18.79;56.56
78488;BME280;67885;49.758;9.582;2023-05-10T05:27:04;98619.47;;;18.81;56.11
78488;BME280;67885;49.758;9.582;2023-05-10T05:29:31;98623.19;;;18.80;56.26
78488;BME280;67885;49.758;9.582;2023-05-10T05:31:57;98621.50;;;18.79;56.95
78488;BME280;67885;49.758;9.582;2023-05-10T05:34:24;98619.66;;;18.80;56.70
78488;BME280;67885;49.758;9.582;2023-05-10T05:36:51;98623.00;;;18.82;55.97
78488;BME280;67885;49.758;9.582;2023-05-10T05:39:18;98616.59;;;18.83;56.94
78488;BME280;67885;49.758;9.582;2023-05-10T05:41:44;98618.63;;;18.81;56.28
78488;BME280;67885;49.758;9.582;2023-05-10T05:44:12;98625.66;;;18.82;56.51
78488;BME280;67885;49.758;9.582;2023-05-10T05:46:39;98613.19;;;18.74;56.21
78488;BME280;67885;49.758;9.582;2023-05-10T05:49:05;98622.66;;;18.70;56.71
78488;BME280;67885;49.758;9.582;2023-05-10T05:51:32;98630.97;;;18.75;56.99
78488;BME280;67885;49.758;9.582;2023-05-10T05:54:00;98598.28;;;18.50;57.10
78488;BME280;67885;49.758;9.582;2023-05-10T05:56:26;98592.84;;;18.43;56.46
78488;BME280;67885;49.758;9.582;2023-05-10T05:58:53;98631.91;;;18.67;57.09
78488;BME280;67885;49.758;9.582;2023-05-10T06:01:21;98643.22;;;18.63;58.22
78488;BME280;67885;49.758;9.582;2023-05-10T06:03:48;98641.34;;;18.63;58.32
78488;BME280;67885;49.758;9.582;2023-05-10T06:06:14;98648.31;;;18.58;58.01
78488;BME280;67885;49.758;9.582;2023-05-10T06:08:41;98645.69;;;18.64;58.56
78488;BME280;67885;49.758;9.582;2023-05-10T06:11:08;98642.00;;;18.65;58.22
78488;BME280;67885;49.758;9.582;2023-05-10T06:13:34;98647.19;;;18.67;58.22
78488;BME280;67885;49.758;9.582;2023-05-10T06:16:02;98642.63;;;18.67;57.99
78488;BME280;67885;49.758;9.582;2023-05-10T06:18:30;98651.97;;;18.71;57.94
78488;BME280;67885;49.758;9.582;2023-05-10T06:20:56;98651.59;;;18.75;57.96
78488;BME280;67885;49.758;9.582;2023-05-10T06:23:23;98657.59;;;18.77;57.40
78488;BME280;67885;49.758;9.582;2023-05-10T06:25:51;98653.91;;;18.78;57.57
78488;BME280;67885;49.758;9.582;2023-05-10T06:28:17;98651.59;;;18.75;57.30
78488;BME280;67885;49.758;9.582;2023-05-10T06:30:44;98639.22;;;18.74;57.23
78488;BME280;67885;49.758;9.582;2023-05-10T06:33:11;98652.09;;;18.85;58.28
78488;BME280;67885;49.758;9.582;2023-05-10T06:35:39;98657.13;;;18.88;57.53
78488;BME280;67885;49.758;9.582;2023-05-10T06:38:05;98652.59;;;18.89;56.63
78488;BME280;67885;49.758;9.582;2023-05-10T06:40:32;98654.53;;;18.80;56.36
78488;BME280;67885;49.758;9.582;2023-05-10T06:42:58;98623.16;;;18.59;56.33
78488;BME280;67885;49.758;9.582;2023-05-10T06:45:25;98665.16;;;18.88;56.20
78488;BME280;67885;49.758;9.582;2023-05-10T06:47:52;98626.53;;;18.67;57.55
78488;BME280;67885;49.758;9.582;2023-05-10T06:50:18;98666.44;;;18.92;55.86
78488;BME280;67885;49.758;9.582;2023-05-10T06:52:46;98671.19;;;18.90;56.66
78488;BME280;67885;49.758;9.582;2023-05-10T06:55:13;98668.13;;;18.93;56.57
78488;BME280;67885;49.758;9.582;2023-05-10T06:57:39;98668.50;;;18.90;55.64
78488;BME280;67885;49.758;9.582;2023-05-10T07:00:07;98669.69;;;18.87;55.66
78488;BME280;67885;49.758;9.582;2023-05-10T07:02:35;98667.75;;;18.81;55.76
78488;BME280;67885;49.758;9.582;2023-05-10T07:05:02;98651.97;;;18.71;54.97
78488;BME280;67885;49.758;9.582;2023-05-10T07:07:28;98643.84;;;18.65;55.06
78488;BME280;67885;49.758;9.582;2023-05-10T07:09:56;98656.59;;;18.78;55.99
78488;BME280;67885;49.758;9.582;2023-05-10T07:12:23;98667.84;;;18.88;56.65
78488;BME280;67885;49.758;9.582;2023-05-10T07:14:49;98674.34;;;18.94;56.18
78488;BME280;67885;49.758;9.582;2023-05-10T07:17:16;98636.25;;;18.68;54.60
78488;BME280;67885;49.758;9.582;2023-05-10T07:19:43;98642.25;;;18.70;54.95
78488;BME280;67885;49.758;9.582;2023-05-10T07:22:09;98679.94;;;18.99;55.98
78488;BME280;67885;49.758;9.582;2023-05-10T07:24:37;98684.56;;;19.05;54.95
78488;BME280;67885;49.758;9.582;2023-05-10T07:27:05;98679.72;;;19.15;55.07
78488;BME280;67885;49.758;9.582;2023-05-10T07:29:32;98591.28;;;18.70;54.47
78488;BME280;67885;49.758;9.582;2023-05-10T07:31:59;98691.66;;;19.34;54.04
78488;BME280;67885;49.758;9.582;2023-05-10T07:34:26;98688.00;;;19.42;54.45
78488;BME280;67885;49.758;9.582;2023-05-10T07:36:53;98620.59;;;19.09;54.24
78488;BME280;67885;49.758;9.582;2023-05-10T07:39:20;98681.28;;;19.53;53.71
78488;BME280;67885;49.758;9.582;2023-05-10T07:41:47;98679.88;;;19.57;52.15
78488;BME280;67885;49.758;9.582;2023-05-10T07:44:15;98670.66;;;19.66;53.99
78488;BME280;67885;49.758;9.582;2023-05-10T07:46:43;98674.03;;;19.75;53.33
78488;BME280;67885;49.758;9.582;2023-05-10T07:49:10;98659.75;;;19.75;54.37
78488;BME280;67885;49.758;9.582;2023-05-10T07:51:36;98670.22;;;19.91;53.89
78488;BME280;67885;49.758;9.582;2023-05-10T07:54:03;98675.31;;;20.08;52.89
78488;BME280;67885;49.758;9.582;2023-05-10T07:56:32;98664.53;;;20.01;51.11
78488;BME280;67885;49.758;9.582;2023-05-10T07:58:59;98667.38;;;19.93;51.47
78488;BME280;67885;49.758;9.582;2023-05-10T08:01:31;98640.28;;;19.66;52.42
78488;BME280;67885;49.758;9.582;2023-05-10T08:03:58;98683.03;;;19.89;53.17
78488;BME280;67885;49.758;9.582;2023-05-10T08:06:25;98673.75;;;19.92;50.82
78488;BME280;67885;49.758;9.582;2023-05-10T08:08:53;98692.63;;;19.98;51.42
78488;BME280;67885;49.758;9.582;2023-05-10T08:11:21;98688.22;;;19.91;51.15
78488;BME280;67885;49.758;9.582;2023-05-10T08:13:49;98670.59;;;19.60;52.11
78488;BME280;67885;49.758;9.582;2023-05-10T08:16:17;98711.91;;;19.80;51.91
78488;BME280;67885;49.758;9.582;2023-05-10T08:18:46;98678.59;;;19.53;51.29
78488;BME280;67885;49.758;9.582;2023-05-10T08:21:14;98713.63;;;19.66;51.60
78488;BME280;67885;49.758;9.582;2023-05-10T08:23:41;98718.53;;;19.63;51.19
78488;BME280;67885;49.758;9.582;2023-05-10T08:26:08;98708.13;;;19.53;52.18
78488;BME280;67885;49.758;9.582;2023-05-10T08:28:35;98704.38;;;19.47;52.44
78488;BME280;67885;49.758;9.582;2023-05-10T08:31:02;98717.66;;;19.55;52.06
78488;BME280;67885;49.758;9.582;2023-05-10T08:33:28;98718.13;;;19.59;53.18
78488;BME280;67885;49.758;9.582;2023-05-10T08:35:56;98718.75;;;19.61;52.62
78488;BME280;67885;49.758;9.582;2023-05-10T08:38:23;98722.47;;;19.60;51.56
78488;BME280;67885;49.758;9.582;2023-05-10T08:40:54;98719.59;;;19.62;53.11
78488;BME280;67885;49.758;9.582;2023-05-10T08:43:26;98696.13;;;19.49;52.48
78488;BME280;67885;49.758;9.582;2023-05-10T08:45:54;98708.59;;;19.57;52.62
78488;BME280;67885;49.758;9.582;2023-05-10T08:48:23;98727.13;;;19.73;50.93
78488;BME280;67885;49.758;9.582;2023-05-10T08:50:53;98736.44;;;19.77;51.50
78488;BME280;67885;49.758;9.582;2023-05-10T08:53:24;98726.31;;;19.73;51.37
78488;BME280;67885;49.758;9.582;2023-05-10T08:55:51;98735.72;;;19.83;51.85
78488;BME280;67885;49.758;9.582;2023-05-10T08:58:19;98730.06;;;19.78;51.70
78488;BME280;67885;49.758;9.582;2023-05-10T09:00:48;98744.19;;;19.87;52.38
78488;BME280;67885;49.758;9.582;2023-05-10T09:03:15;98730.06;;;19.78;51.33
78488;BME280;67885;49.758;9.582;2023-05-10T09:05:42;98748.16;;;19.91;52.26
78488;BME280;67885;49.758;9.582;2023-05-10T09:08:10;98733.09;;;19.90;51.60
78488;BME280;67885;49.758;9.582;2023-05-10T09:10:41;98738.38;;;20.05;52.03
78488;BME280;67885;49.758;9.582;2023-05-10T09:13:10;98742.13;;;20.11;51.72
78488;BME280;67885;49.758;9.582;2023-05-10T09:15:37;98748.78;;;20.15;51.72
78488;BME280;67885;49.758;9.582;2023-05-10T09:18:04;98734.31;;;20.16;51.79
78488;BME280;67885;49.758;9.582;2023-05-10T09:20:30;98744.94;;;20.31;51.78
78488;BME280;67885;49.758;9.582;2023-05-10T09:22:57;98746.06;;;20.43;52.97
78488;BME280;67885;49.758;9.582;2023-05-10T09:25:24;98744.25;;;20.57;52.13
78488;BME280;67885;49.758;9.582;2023-05-10T09:27:52;98735.59;;;20.62;51.90
78488;BME280;67885;49.758;9.582;2023-05-10T09:30:24;98737.03;;;20.64;50.68
78488;BME280;67885;49.758;9.582;2023-05-10T09:32:52;98750.38;;;20.79;50.46
78488;BME280;67885;49.758;9.582;2023-05-10T09:35:21;98717.75;;;20.54;47.97
78488;BME280;67885;49.758;9.582;2023-05-10T09:37:50;98746.78;;;20.65;49.90
78488;BME280;67885;49.758;9.582;2023-05-10T09:40:21;98750.28;;;20.66;48.18
78488;BME280;67885;49.758;9.582;2023-05-10T09:42:54;98755.25;;;20.62;50.60
78488;BME280;67885;49.758;9.582;2023-05-10T09:45:22;98752.97;;;20.66;48.83
78488;BME280;67885;49.758;9.582;2023-05-10T09:47:49;98751.41;;;20.71;49.65
78488;BME280;67885;49.758;9.582;2023-05-10T09:50:16;98735.88;;;20.74;49.08
78488;BME280;67885;49.758;9.582;2023-05-10T09:52:47;98750.84;;;20.83;50.02
78488;BME280;67885;49.758;9.582;2023-05-10T09:55:15;98754.16;;;20.85;48.85
78488;BME280;67885;49.758;9.582;2023-05-10T09:57:42;98753.13;;;20.86;48.65
78488;BME280;67885;49.758;9.582;2023-05-10T10:00:17;98755.41;;;20.82;48.42
78488;BME280;67885;49.758;9.582;2023-05-10T10:02:46;98751.25;;;20.80;47.65
78488;BME280;67885;49.758;9.582;2023-05-10T10:05:14;98742.72;;;20.76;47.40
78488;BME280;67885;49.758;9.582;2023-05-10T10:07:41;98756.19;;;20.76;48.62
78488;BME280;67885;49.758;9.582;2023-05-10T10:10:08;98753.94;;;20.80;47.57
78488;BME280;67885;49.758;9.582;2023-05-10T10:12:39;98749.81;;;20.84;49.54
78488;BME280;67885;49.758;9.582;2023-05-10T10:15:08;98736.72;;;20.74;48.33
78488;BME280;67885;49.758;9.582;2023-05-10T10:17:37;98719.19;;;20.50;48.31
78488;BME280;67885;49.758;9.582;2023-05-10T10:20:06;98752.91;;;20.87;47.93
78488;BME280;67885;49.758;9.582;2023-05-10T10:22:33;98751.47;;;20.85;47.34
78488;BME280;67885;49.758;9.582;2023-05-10T10:24:59;98759.94;;;20.82;48.30
78488;BME280;67885;49.758;9.582;2023-05-10T10:27:38;98740.97;;;20.62;47.11
78488;BME280;67885;49.758;9.582;2023-05-10T10:30:20;98760.75;;;20.76;47.38
78488;BME280;67885;49.758;9.582;2023-05-10T10:33:08;98753.47;;;20.69;47.98
78488;BME280;67885;49.758;9.582;2023-05-10T10:35:38;98738.16;;;20.77;48.51
78488;BME280;67885;49.758;9.582;2023-05-10T10:38:07;98759.75;;;20.90;48.47
78488;BME280;67885;49.758;9.582;2023-05-10T10:40:34;98720.09;;;20.64;48.02
78488;BME280;67885;49.758;9.582;2023-05-10T10:43:22;98757.09;;;20.97;48.41
78488;BME280;67885;49.758;9.582;2023-05-10T10:46:11;98759.19;;;21.01;48.86
78488;BME280;67885;49.758;9.582;2023-05-10T10:48:40;98757.34;;;21.09;49.73
78488;BME280;67885;49.758;9.582;2023-05-10T10:51:08;98759.03;;;21.16;48.25
78488;BME280;67885;49.758;9.582;2023-05-10T10:53:34;98757.81;;;21.19;48.82
78488;BME280;67885;49.758;9.582;2023-05-10T10:56:07;98761.78;;;21.30;48.42
78488;BME280;67885;49.758;9.582;2023-05-10T10:58:35;98735.38;;;21.05;45.84
78488;BME280;67885;49.758;9.582;2023-05-10T11:01:14;98759.50;;;21.40;47.49
78488;BME280;67885;49.758;9.582;2023-05-10T11:06:40;98751.66;;;21.52;46.80
78488;BME280;67885;49.758;9.582;2023-05-10T11:09:09;98715.16;;;21.36;46.73
78488;BME280;67885;49.758;9.582;2023-05-10T11:11:48;98749.41;;;21.62;47.49
78488;BME280;67885;49.758;9.582;2023-05-10T11:14:20;98754.19;;;21.60;47.27
78488;BME280;67885;49.758;9.582;2023-05-10T11:16:46;98751.28;;;21.75;47.23
78488;BME280;67885;49.758;9.582;2023-05-10T11:19:16;98747.56;;;21.83;46.51
78488;BME280;67885;49.758;9.582;2023-05-10T11:21:48;98724.13;;;21.77;45.48
78488;BME280;67885;49.758;9.582;2023-05-10T11:24:17;98749.63;;;22.01;45.33
78488;BME280;67885;49.758;9.582;2023-05-10T11:26:43;98748.38;;;22.10;45.83
78488;BME280;67885;49.758;9.582;2023-05-10T11:29:12;98716.84;;;22.04;45.81
78488;BME280;67885;49.758;9.582;2023-05-10T11:31:42;98747.13;;;22.33;44.73
78488;BME280;67885;49.758;9.582;2023-05-10T11:34:10;98747.31;;;22.38;43.96
78488;BME280;67885;49.758;9.582;2023-05-10T11:36:39;98738.59;;;22.43;44.90
78488;BME280;67885;49.758;9.582;2023-05-10T11:39:05;98734.66;;;22.38;45.14
78488;BME280;67885;49.758;9.582;2023-05-10T11:41:32;98747.72;;;22.48;44.61
78488;BME280;67885;49.758;9.582;2023-05-10T11:43:59;98745.22;;;22.47;44.36
78488;BME280;67885;49.758;9.582;2023-05-10T11:46:27;98753.31;;;22.47;43.92
78488;BME280;67885;49.758;9.582;2023-05-10T11:48:58;98747.53;;;22.36;44.61
78488;BME280;67885;49.758;9.582;2023-05-10T11:51:26;98767.41;;;22.29;44.07
78488;BME280;67885;49.758;9.582;2023-05-10T11:53:56;98773.25;;;22.05;45.33
78488;BME280;67885;49.758;9.582;2023-05-10T11:56:23;98778.47;;;21.87;44.84
78488;BME280;67885;49.758;9.582;2023-05-10T11:58:55;98782.78;;;21.61;44.32
78488;BME280;67885;49.758;9.582;2023-05-10T12:01:23;98790.78;;;21.34;45.59
78488;BME280;67885;49.758;9.582;2023-05-10T12:03:52;98787.63;;;21.24;46.56
78488;BME280;67885;49.758;9.582;2023-05-10T12:06:20;98795.88;;;21.16;48.53
78488;BME280;67885;49.758;9.582;2023-05-10T12:08:48;98796.50;;;21.11;47.82
78488;BME280;67885;49.758;9.582;2023-05-10T12:11:19;98794.03;;;21.10;49.20
78488;BME280;67885;49.758;9.582;2023-05-10T12:13:47;98793.38;;;21.08;48.03
78488;BME280;67885;49.758;9.582;2023-05-10T12:16:19;98798.34;;;21.04;47.58
78488;BME280;67885;49.758;9.582;2023-05-10T12:18:48;98801.63;;;20.99;48.15
78488;BME280;67885;49.758;9.582;2023-05-10T12:21:16;98808.25;;;20.97;48.65
78488;BME280;67885;49.758;9.582;2023-05-10T12:23:45;98807.00;;;20.99;49.88
78488;BME280;67885;49.758;9.582;2023-05-10T12:26:12;98818.22;;;21.03;49.24
78488;BME280;67885;49.758;9.582;2023-05-10T12:28:41;98808.28;;;21.03;49.87
78488;BME280;67885;49.758;9.582;2023-05-10T12:31:08;98800.41;;;21.02;50.88
78488;BME280;67885;49.758;9.582;2023-05-10T12:33:38;98814.34;;;21.12;50.52
78488;BME280;67885;49.758;9.582;2023-05-10T12:36:07;98806.47;;;21.17;50.71
78488;BME280;67885;49.758;9.582;2023-05-10T12:38:35;98805.88;;;21.22;48.92
78488;BME280;67885;49.758;9.582;2023-05-10T12:41:05;98807.09;;;21.19;48.62
78488;BME280;67885;49.758;9.582;2023-05-10T12:43:32;98810.22;;;21.23;49.12
78488;BME280;67885;49.758;9.582;2023-05-10T12:46:05;98812.09;;;21.29;50.10
78488;BME280;67885;49.758;9.582;2023-05-10T12:48:32;98813.16;;;21.35;49.48
78488;BME280;67885;49.758;9.582;2023-05-10T12:51:00;98817.31;;;21.37;47.93
78488;BME280;67885;49.758;9.582;2023-05-10T12:53:27;98807.34;;;21.31;47.16
78488;BME280;67885;49.758;9.582;2023-05-10T12:55:53;98802.56;;;21.27;46.75
78488;BME280;67885;49.758;9.582;2023-05-10T12:58:20;98827.41;;;21.22;47.48
78488;BME280;67885;49.758;9.582;2023-05-10T13:00:47;98816.03;;;21.27;49.79
78488;BME280;67885;49.758;9.582;2023-05-10T13:03:14;98802.16;;;21.23;47.55
78488;BME280;67885;49.758;9.582;2023-05-10T13:05:41;98821.03;;;21.36;47.48
78488;BME280;67885;49.758;9.582;2023-05-10T13:08:08;98824.34;;;21.38;49.04
78488;BME280;67885;49.758;9.582;2023-05-10T13:10:34;98827.28;;;21.44;48.23
78488;BME280;67885;49.758;9.582;2023-05-10T13:13:01;98751.09;;;20.95;48.31